Aeroporto :
LOGIN :

Iscrizione | Disclaimer

   EN    FR    IT 

 










Sommario :    VFR   VFR Marginale   IFR   IFR Intensivo   IFR Molto Intensivo
Visibilità : 
Base nubi : 
>= 8 km
>= 3000ft
5 / 8 km
1000 / 3000 ft
1500m / 5 km
500 / 1000 ft
800 / 1500m
200 / 500 ft
< 800m
< 200 ft
Simboli :   Temporali  Nebbia  Neve Forte  Precipitazioni Forti  Vento > 20 kt
SIGMETs :   Varie  Temporali  Ghiacco  Turbolenza  Onda orograficha  Ceneri Vulcaniche






- Altitudine del aeroporto : 126 ft
- Codice IATA : WIC


EGPC - Wick

ULTIMO METAR :
  • 112350Z AUTO 24013KT 8000 -RA FEW006/// SCT014/// BKN026/// 03/01 Q0985

METARs OBSOLETI :
  • 112320Z AUTO 24016KT 9999 -RA SCT033/// SCT045/// 04/01 Q0984
  • 112250Z AUTO 23016KT 9999 FEW047/// 04/01 Q0984
  • 112220Z AUTO 23013KT 9999 FEW034/// SCT040/// 04/01 Q0984
  • 112150Z AUTO 22015KT 9999 FEW032/// SCT042/// 04/01 Q0983

TAF TAF EGPC
Valido dal 12 a 00 ore il 12 a 09 ore UTC


112259Z 1200/1209 22018KT 9999 FEW014 SCT020
TEMPO 1200/1206 22025G36KT 6000 SHRAGS BKN014
ATIS : +44 1955 607 596



MetMap, La meteo Aeronautica in un colpo d'occhio ! - Copyright ORBIFLY Dicembre 2007 - Disclaimer

ORBIFLY MET'MAP TEAM :

Programmazione e sviluppo : Alexandra Zaïnal
Concezione : Baudouin d'Aumeries
Aiuto per la programmazione : Marc-Olivier Méhu
Supporto tecnico e logistico : Manuel Goepfert
Aiuto per la traduzione : Arnaldo La Scala

Contatto : metmap@orbifly.com




FONTI E CREDITI :

   NOAA